Isola Bianca — ICLD — position and weather

sailwx.info

Track history (hours):
 
Tides and Currents Weather Stations Pressure Air Temp Water Temp Dewpoint Dewpoint Depression Visibility Wind Speed Wind Dir Waves Ship Positions

Isola Bianca

Last reported at 2017-Feb-13 07:30 UTC. Time now 2017-Feb-27 08:59 UTC.
Position N 13°46' W 017°38'.
Warning: this ship's position is 14 days out of date.

Length 183 m; draft 11.3 m.

Type: Ship. MMSI: 247245200.

Date/timePositionNaut miles runAvg speedWind from/ knotsBaromVisibWave heightAir tempDewpointWater temp
2017-Feb-13 07:30N 13°46' W 017°38'1412.2
2017-Feb-13 06:22N 14°00' W 017°38'1012.3
2017-Feb-13 05:33N 14°10' W 017°39'4212.4
2017-Feb-13 02:12N 14°51' W 017°42'1012.4
2017-Feb-13 01:21N 15°02' W 017°42'1012.2
2017-Feb-13 00:33N 15°12' W 017°42'  
2017-Feb-10 13:33N 27°32' W 015°15'1312.9
2017-Feb-10 12:34N 27°45' W 015°16'1312.7
2017-Feb-10 11:33N 27°58' W 015°16'1010.2
2017-Feb-10 10:34N 28°07' W 015°21'0 0.3
2017-Feb-10 09:34N 28°07' W 015°21'6 5.5
2017-Feb-10 08:33N 28°12' W 015°17'1212.3
2017-Feb-10 07:33N 28°20' W 015°06'1312.9
2017-Feb-10 06:33N 28°28' W 014°55'1212.2
2017-Feb-10 05:33N 28°39' W 014°49'45312.8
2017-Feb-08 18:16N 35°44' W 011°45'  
2017-Feb-05 03:33N 49°38' W 004°05'1210.7
2017-Feb-05 02:24N 49°45' W 003°49'8 9.9
2017-Feb-05 01:33N 49°49' W 003°38'9 9.4
2017-Feb-05 00:34N 49°54' W 003°26'9 9.2
2017-Feb-04 23:34N 49°58' W 003°13'10 9.6
2017-Feb-04 22:34N 50°01' W 002°59'1010.2
2017-Feb-04 21:34N 50°03' W 002°43'5412.7
2017-Feb-04 17:19N 50°18' W 001°22'1012.6
2017-Feb-04 16:30N 50°20' W 001°06'1010.9
2017-Feb-04 15:32N 50°23' W 000°50'9 8.7
2017-Feb-04 14:29N 50°25' W 000°37'8 8.5
2017-Feb-04 13:33N 50°27' W 000°24'9 8.8
2017-Feb-04 12:33N 50°29' W 000°11'10 9.6
2017-Feb-04 11:33N 50°32' E 000°03'4 3.9
2017-Feb-04 10:30N 50°33' E 000°09'4 4.1
2017-Feb-04 09:33N 50°34' E 000°15'7 7.4
2017-Feb-04 08:33N 50°36' E 000°27'1111.4
2017-Feb-04 07:33N 50°41' E 000°43'1210.8
2017-Feb-04 06:25N 50°48' E 000°59'9 9.6
2017-Feb-04 05:26N 50°54' E 001°11'8 8.9
2017-Feb-04 04:33N 50°59' E 001°19'9 8.5
2017-Feb-04 03:33N 51°05' E 001°29'10 9.5
2017-Feb-04 02:33N 51°11' E 001°41'1110.6
2017-Feb-04 01:33N 51°20' E 001°51'1111.4
2017-Feb-04 00:33N 51°30' E 001°59'1311.3
2017-Feb-03 23:24N 51°39' E 002°14'  
Track history (hours):
 
Tides and Currents Weather Stations Pressure Air Temp Water Temp Dewpoint Dewpoint Depression Visibility Wind Speed Wind Dir Waves Ship Positions

Isola Bianca

Last reported at 2017-Feb-13 07:30 UTC. Time now 2017-Feb-27 08:59 UTC.
Position N 13°46' W 017°38'.
Warning: this ship's position is 14 days out of date.

Length 183 m; draft 11.3 m.

Type: Ship. MMSI: 247245200.

Date/timePositionNaut miles runAvg speedWind from/ knotsBaromVisibWave heightAir tempDewpointWater temp
2017-Feb-13 07:30N 13°46' W 017°38'1412.2
2017-Feb-13 06:22N 14°00' W 017°38'1012.3
2017-Feb-13 05:33N 14°10' W 017°39'4212.4
2017-Feb-13 02:12N 14°51' W 017°42'1012.4
2017-Feb-13 01:21N 15°02' W 017°42'1012.2
2017-Feb-13 00:33N 15°12' W 017°42'  
2017-Feb-10 13:33N 27°32' W 015°15'1312.9
2017-Feb-10 12:34N 27°45' W 015°16'1312.7
2017-Feb-10 11:33N 27°58' W 015°16'1010.2
2017-Feb-10 10:34N 28°07' W 015°21'0 0.3
2017-Feb-10 09:34N 28°07' W 015°21'6 5.5
2017-Feb-10 08:33N 28°12' W 015°17'1212.3
2017-Feb-10 07:33N 28°20' W 015°06'1312.9
2017-Feb-10 06:33N 28°28' W 014°55'1212.2
2017-Feb-10 05:33N 28°39' W 014°49'45312.8
2017-Feb-08 18:16N 35°44' W 011°45'  
2017-Feb-05 03:33N 49°38' W 004°05'1210.7
2017-Feb-05 02:24N 49°45' W 003°49'8 9.9
2017-Feb-05 01:33N 49°49' W 003°38'9 9.4
2017-Feb-05 00:34N 49°54' W 003°26'9 9.2
2017-Feb-04 23:34N 49°58' W 003°13'10 9.6
2017-Feb-04 22:34N 50°01' W 002°59'1010.2
2017-Feb-04 21:34N 50°03' W 002°43'5412.7
2017-Feb-04 17:19N 50°18' W 001°22'1012.6
2017-Feb-04 16:30N 50°20' W 001°06'1010.9
2017-Feb-04 15:32N 50°23' W 000°50'9 8.7
2017-Feb-04 14:29N 50°25' W 000°37'8 8.5
2017-Feb-04 13:33N 50°27' W 000°24'9 8.8
2017-Feb-04 12:33N 50°29' W 000°11'10 9.6
2017-Feb-04 11:33N 50°32' E 000°03'4 3.9
2017-Feb-04 10:30N 50°33' E 000°09'4 4.1
2017-Feb-04 09:33N 50°34' E 000°15'7 7.4
2017-Feb-04 08:33N 50°36' E 000°27'1111.4
2017-Feb-04 07:33N 50°41' E 000°43'1210.8
2017-Feb-04 06:25N 50°48' E 000°59'9 9.6
2017-Feb-04 05:26N 50°54' E 001°11'8 8.9
2017-Feb-04 04:33N 50°59' E 001°19'9 8.5
2017-Feb-04 03:33N 51°05' E 001°29'10 9.5
2017-Feb-04 02:33N 51°11' E 001°41'1110.6
2017-Feb-04 01:33N 51°20' E 001°51'1111.4
2017-Feb-04 00:33N 51°30' E 001°59'1311.3
2017-Feb-03 23:24N 51°39' E 002°14'  

Dump ship's entire track history